createdAt,value
2023-02-07T00:01:21.946Z,84.20
2023-02-07T00:03:26.890Z,84.30
2023-02-07T00:05:31.929Z,84.60
2023-02-07T00:07:39.532Z,84.80
2023-02-07T00:09:44.784Z,85.20
2023-02-07T00:11:49.717Z,85.50
2023-02-07T00:13:59.383Z,85.90
2023-02-07T00:16:05.240Z,85.30
2023-02-07T00:18:10.156Z,86.10
2023-02-07T00:20:17.462Z,86.00
2023-02-07T00:22:22.737Z,86.10
2023-02-07T00:24:30.525Z,86.20
2023-02-07T00:26:36.375Z,86.20
2023-02-07T00:28:41.374Z,86.10
2023-02-07T00:30:46.573Z,86.10
2023-02-07T00:32:51.516Z,86.80
2023-02-07T00:34:56.428Z,86.20
2023-02-07T00:37:01.696Z,84.10
2023-02-07T00:39:11.172Z,83.10
2023-02-07T00:41:20.130Z,82.60
2023-02-07T00:43:30.024Z,81.20
2023-02-07T00:45:35.443Z,80.80
2023-02-07T00:47:40.573Z,80.30
2023-02-07T00:49:46.182Z,80.30
2023-02-07T00:51:51.079Z,80.40
2023-02-07T00:53:56.555Z,80.20
2023-02-07T00:56:02.838Z,80.20
2023-02-07T00:58:10.875Z,79.70
2023-02-07T01:00:17.891Z,80.40
2023-02-07T01:02:24.779Z,80.90
2023-02-07T01:04:29.812Z,80.40
2023-02-07T01:06:37.137Z,81.20
2023-02-07T01:08:42.701Z,80.90
2023-02-07T01:10:48.366Z,81.10
2023-02-07T01:12:54.177Z,81.20
2023-02-07T01:15:03.518Z,81.50
2023-02-07T01:17:09.597Z,81.40
2023-02-07T01:19:16.127Z,82.30
2023-02-07T01:21:23.454Z,83.30
2023-02-07T01:23:28.336Z,82.50
2023-02-07T01:25:33.990Z,82.70
2023-02-07T01:27:39.659Z,83.80
2023-02-07T01:29:45.459Z,84.00
2023-02-07T01:31:54.220Z,84.00
2023-02-07T01:34:04.245Z,85.00
2023-02-07T01:36:12.840Z,85.40
2023-02-07T01:38:19.249Z,84.80
2023-02-07T01:40:24.819Z,85.00
2023-02-07T01:42:31.662Z,84.90
2023-02-07T01:45:08.773Z,84.90
2023-02-07T01:47:22.183Z,84.40
2023-02-07T01:49:31.896Z,84.70
2023-02-07T01:51:38.186Z,84.90
2023-02-07T01:53:44.201Z,84.80
2023-02-07T01:55:53.284Z,84.90
2023-02-07T01:57:58.890Z,86.00
2023-02-07T02:00:05.232Z,85.80
2023-02-07T02:02:26.271Z,86.20
2023-02-07T02:04:31.558Z,87.00
2023-02-07T02:06:38.256Z,86.50
2023-02-07T02:08:43.552Z,86.80
2023-02-07T02:11:05.742Z,87.50
2023-02-07T02:13:23.306Z,88.70
2023-02-07T02:15:40.237Z,88.50
2023-02-07T02:18:15.944Z,88.50
2023-02-07T02:21:10.054Z,88.50
2023-02-07T02:23:23.849Z,88.40
2023-02-07T02:26:18.966Z,88.30
2023-02-07T02:29:03.020Z,88.50
2023-02-07T02:31:44.628Z,89.10
2023-02-07T02:33:58.393Z,89.00
2023-02-07T02:36:16.862Z,89.40
2023-02-07T02:38:33.458Z,90.00
2023-02-07T02:40:51.358Z,89.80
2023-02-07T02:43:04.887Z,89.60
2023-02-07T02:45:15.238Z,89.70
2023-02-07T02:47:22.675Z,89.60
2023-02-07T02:49:30.637Z,89.80
2023-02-07T02:51:35.833Z,89.80
2023-02-07T02:53:41.145Z,90.00
2023-02-07T02:56:17.020Z,90.10
2023-02-07T02:58:33.131Z,90.20
2023-02-07T03:00:59.314Z,89.80
2023-02-07T03:03:38.187Z,89.40
2023-02-07T03:06:00.652Z,89.10
2023-02-07T03:08:21.051Z,89.10
2023-02-07T03:10:38.395Z,89.80
2023-02-07T03:12:51.271Z,89.60
2023-02-07T03:15:04.451Z,89.50
2023-02-07T03:17:22.471Z,89.60
2023-02-07T03:19:33.363Z,90.10
2023-02-07T03:21:46.861Z,89.90
2023-02-07T03:23:52.335Z,89.80
2023-02-07T03:26:00.715Z,90.50
2023-02-07T03:28:07.317Z,90.40
2023-02-07T03:30:19.384Z,90.50
2023-02-07T03:32:25.325Z,90.30
2023-02-07T03:34:38.096Z,90.10
2023-02-07T03:36:52.947Z,90.40
2023-02-07T03:38:57.927Z,90.40
2023-02-07T03:41:09.781Z,90.40
2023-02-07T03:43:18.709Z,90.30
2023-02-07T03:45:25.505Z,90.70
2023-02-07T03:47:31.777Z,90.60
2023-02-07T03:49:36.727Z,90.60
2023-02-07T03:51:41.643Z,90.80
2023-02-07T03:53:49.148Z,90.80
2023-02-07T03:55:54.276Z,90.80
2023-02-07T03:57:59.617Z,90.60
2023-02-07T04:00:04.572Z,90.90
2023-02-07T04:02:17.434Z,90.90
2023-02-07T04:04:22.948Z,90.80
2023-02-07T04:06:28.370Z,90.60
2023-02-07T04:08:34.639Z,90.90
2023-02-07T04:10:42.099Z,90.60
2023-02-07T04:12:47.275Z,90.80
2023-02-07T04:14:52.412Z,90.50
2023-02-07T04:16:57.299Z,90.60
2023-02-07T04:19:02.351Z,91.50
2023-02-07T04:21:11.483Z,91.10
2023-02-07T04:23:17.003Z,90.90
2023-02-07T04:25:22.328Z,91.00
2023-02-07T04:27:32.219Z,90.40
2023-02-07T04:29:37.712Z,90.90
2023-02-07T04:31:42.977Z,90.90
2023-02-07T04:33:47.877Z,90.70
2023-02-07T04:35:59.293Z,90.40
2023-02-07T04:38:04.701Z,90.40
2023-02-07T04:40:12.167Z,90.60
2023-02-07T04:42:17.305Z,90.70
2023-02-07T04:44:25.281Z,90.40
2023-02-07T04:46:30.589Z,89.90
2023-02-07T04:48:37.003Z,89.80
2023-02-07T04:50:41.947Z,89.70
2023-02-07T04:52:46.857Z,89.90
2023-02-07T04:54:52.026Z,90.20
2023-02-07T04:56:57.239Z,90.00
2023-02-07T04:59:02.463Z,90.10
2023-02-07T05:01:10.058Z,90.10
2023-02-07T05:03:15.547Z,90.40
2023-02-07T05:05:21.438Z,90.60
2023-02-07T05:07:26.357Z,90.70
2023-02-07T05:09:31.638Z,90.80
2023-02-07T05:11:37.271Z,90.60
2023-02-07T05:13:42.221Z,90.70
2023-02-07T05:15:47.511Z,90.60
2023-02-07T05:17:56.990Z,90.80
2023-02-07T05:20:01.884Z,90.70
2023-02-07T05:22:08.050Z,91.30
2023-02-07T05:24:13.812Z,91.50
2023-02-07T05:26:19.466Z,91.50
2023-02-07T05:28:24.451Z,91.70
2023-02-07T05:30:30.062Z,91.70
2023-02-07T05:32:47.761Z,91.50
2023-02-07T05:34:55.251Z,91.30
2023-02-07T05:37:01.275Z,91.60
2023-02-07T05:39:06.485Z,91.50
2023-02-07T05:41:11.371Z,91.90
2023-02-07T05:43:17.062Z,92.00
2023-02-07T05:45:23.738Z,92.20
2023-02-07T05:47:29.440Z,92.30
2023-02-07T05:49:34.401Z,92.40
2023-02-07T05:51:42.081Z,92.60
2023-02-07T05:53:46.975Z,92.80
2023-02-07T05:55:54.689Z,92.30
2023-02-07T05:58:00.049Z,92.40
2023-02-07T06:00:06.285Z,92.60
2023-02-07T06:02:17.104Z,92.40
2023-02-07T06:04:22.009Z,92.50
2023-02-07T06:06:26.901Z,92.70
2023-02-07T06:08:34.769Z,92.20
2023-02-07T06:10:39.912Z,92.60
2023-02-07T06:12:45.273Z,92.40
2023-02-07T06:14:51.069Z,92.90
2023-02-07T06:16:55.970Z,92.90
2023-02-07T06:19:01.231Z,93.10
2023-02-07T06:21:06.502Z,93.20
2023-02-07T06:23:11.804Z,93.10
2023-02-07T06:25:21.330Z,92.90
2023-02-07T06:27:26.476Z,93.30
2023-02-07T06:29:31.743Z,92.90
2023-02-07T06:31:36.751Z,93.00
2023-02-07T06:33:41.711Z,92.90
2023-02-07T06:35:47.524Z,92.90
2023-02-07T06:37:54.926Z,92.90
2023-02-07T06:40:00.066Z,93.00
2023-02-07T06:42:07.705Z,93.50
2023-02-07T06:44:12.957Z,93.70
2023-02-07T06:46:18.063Z,93.50
2023-02-07T06:48:26.068Z,93.50
2023-02-07T06:50:31.535Z,93.90
2023-02-07T06:52:36.872Z,93.70
2023-02-07T06:54:42.377Z,93.50
2023-02-07T06:56:47.329Z,93.60
2023-02-07T06:58:54.815Z,93.80
2023-02-07T07:01:00.074Z,94.00
2023-02-07T07:03:05.783Z,94.10
2023-02-07T07:05:11.438Z,94.00
2023-02-07T07:07:16.337Z,94.20
2023-02-07T07:09:21.404Z,94.30
2023-02-07T07:11:26.903Z,94.20
2023-02-07T07:13:32.277Z,93.90
2023-02-07T07:15:40.517Z,93.90
2023-02-07T07:17:46.229Z,93.80
2023-02-07T07:19:51.591Z,93.80
2023-02-07T07:21:59.085Z,93.60
2023-02-07T07:24:04.035Z,93.80
2023-02-07T07:26:09.355Z,93.90
2023-02-07T07:28:14.318Z,94.20
2023-02-07T07:30:20.121Z,93.90
2023-02-07T07:32:33.859Z,93.60
2023-02-07T07:34:39.711Z,94.20
2023-02-07T07:36:45.671Z,93.70
2023-02-07T07:38:52.389Z,93.80
2023-02-07T07:40:57.698Z,93.80
2023-02-07T07:43:02.781Z,93.80
2023-02-07T07:45:17.628Z,93.30
2023-02-07T07:47:22.558Z,93.30
2023-02-07T07:49:30.349Z,93.40
2023-02-07T07:51:35.499Z,93.50
2023-02-07T07:53:40.448Z,93.70
2023-02-07T07:55:45.604Z,93.50
2023-02-07T07:57:50.515Z,93.40
2023-02-07T07:59:55.417Z,93.70
2023-02-07T08:02:00.793Z,93.60
2023-02-07T08:04:06.590Z,93.50
2023-02-07T08:06:14.530Z,93.10
2023-02-07T08:08:20.187Z,92.60
2023-02-07T08:10:25.904Z,92.50
2023-02-07T08:12:31.030Z,92.30
2023-02-07T08:14:35.927Z,92.30
2023-02-07T08:16:41.087Z,92.20
2023-02-07T08:18:46.632Z,92.30
2023-02-07T08:20:52.319Z,92.10
2023-02-07T08:23:00.918Z,91.70
2023-02-07T08:25:06.861Z,91.70
2023-02-07T08:27:12.065Z,91.60
2023-02-07T08:29:17.014Z,91.50
2023-02-07T08:31:22.478Z,91.40
2023-02-07T08:33:29.421Z,91.20
2023-02-07T08:35:36.366Z,90.90
2023-02-07T08:37:41.679Z,91.10
2023-02-07T08:39:52.765Z,91.10
2023-02-07T08:41:57.683Z,90.90
2023-02-07T08:44:02.601Z,90.80
2023-02-07T08:46:08.803Z,90.80
2023-02-07T08:48:13.810Z,90.50
2023-02-07T08:50:20.424Z,89.70
2023-02-07T08:52:27.086Z,89.90
2023-02-07T08:54:33.664Z,90.00
2023-02-07T08:56:41.160Z,89.60
2023-02-07T08:58:46.264Z,89.20
2023-02-07T09:00:51.422Z,89.00
2023-02-07T09:02:56.522Z,89.20
2023-02-07T09:05:01.467Z,88.90
2023-02-07T09:07:06.397Z,88.50
2023-02-07T09:09:12.655Z,88.20
2023-02-07T09:11:18.213Z,86.90
2023-02-07T09:13:25.831Z,87.20
2023-02-07T09:15:30.738Z,87.00
2023-02-07T09:17:38.048Z,86.30
2023-02-07T09:19:42.952Z,86.90
2023-02-07T09:21:48.202Z,86.90
2023-02-07T09:23:53.499Z,87.00
2023-02-07T09:26:02.739Z,86.40
2023-02-07T09:28:08.207Z,84.40
2023-02-07T09:30:16.493Z,84.30
2023-02-07T09:32:21.571Z,84.50
2023-02-07T09:34:27.608Z,83.50
2023-02-07T09:36:34.094Z,81.20
2023-02-07T09:38:38.988Z,79.50
2023-02-07T09:40:46.104Z,79.90
2023-02-07T09:43:00.368Z,78.10
2023-02-07T09:45:11.700Z,77.70
2023-02-07T09:47:23.567Z,78.50
2023-02-07T09:49:38.670Z,79.50
2023-02-07T09:51:45.251Z,78.10
2023-02-07T09:53:56.703Z,77.80
2023-02-07T09:56:04.428Z,77.60
2023-02-07T09:58:17.021Z,78.20
2023-02-07T10:00:28.831Z,80.20
2023-02-07T10:02:44.496Z,79.80
2023-02-07T10:04:52.834Z,78.10
2023-02-07T10:07:00.297Z,76.70
2023-02-07T10:09:05.341Z,77.40
2023-02-07T10:11:23.841Z,75.40
2023-02-07T10:13:50.324Z,76.90
2023-02-07T10:16:16.417Z,73.70
2023-02-07T10:18:42.852Z,73.60
2023-02-07T10:20:59.300Z,74.70
2023-02-07T10:23:30.977Z,74.40
2023-02-07T10:25:45.715Z,72.80
2023-02-07T10:28:04.408Z,70.50
2023-02-07T10:30:18.596Z,72.10
2023-02-07T10:32:27.461Z,74.30
2023-02-07T10:34:41.478Z,75.60
2023-02-07T10:36:51.566Z,74.80
2023-02-07T10:39:09.526Z,72.70
2023-02-07T10:41:21.787Z,74.20
2023-02-07T10:43:35.221Z,72.70
2023-02-07T10:45:44.105Z,72.20
2023-02-07T10:47:49.640Z,70.70
2023-02-07T10:49:58.464Z,71.80
2023-02-07T10:52:16.269Z,70.50
2023-02-07T10:54:24.647Z,70.30
2023-02-07T10:56:31.453Z,70.60
2023-02-07T10:58:42.353Z,69.30
2023-02-07T11:00:52.304Z,67.60
2023-02-07T11:03:03.997Z,68.00
2023-02-07T11:05:35.260Z,70.00
2023-02-07T11:07:47.675Z,70.10
2023-02-07T11:09:52.889Z,67.60
2023-02-07T11:11:58.721Z,68.20
2023-02-07T11:14:08.411Z,66.00
2023-02-07T11:16:13.418Z,65.60
2023-02-07T11:18:38.611Z,67.40
2023-02-07T11:20:53.347Z,68.90
2023-02-07T11:23:00.164Z,65.50
2023-02-07T11:25:09.189Z,64.40
2023-02-07T11:27:18.650Z,67.60
2023-02-07T11:29:25.903Z,64.20
2023-02-07T11:31:35.290Z,64.90
2023-02-07T11:33:40.685Z,64.20
2023-02-07T11:36:15.145Z,62.50
2023-02-07T11:38:21.425Z,63.80
2023-02-07T11:40:31.909Z,58.60
2023-02-07T11:42:39.758Z,58.70
2023-02-07T11:44:47.750Z,61.00
2023-02-07T11:46:53.745Z,62.60
2023-02-07T11:49:01.750Z,58.30
2023-02-07T11:51:18.389Z,59.00
2023-02-07T11:53:27.368Z,59.50
2023-02-07T11:55:38.149Z,62.90
2023-02-07T11:57:43.960Z,60.90
2023-02-07T11:59:54.934Z,58.10
2023-02-07T12:02:04.532Z,59.10
2023-02-07T12:04:16.052Z,58.40
2023-02-07T12:06:29.562Z,58.70
2023-02-07T12:08:38.971Z,56.90
2023-02-07T12:10:49.989Z,58.30
2023-02-07T12:13:03.749Z,55.20
2023-02-07T12:15:16.964Z,59.40
2023-02-07T12:17:29.611Z,61.70
2023-02-07T12:19:39.758Z,59.40
2023-02-07T12:22:00.132Z,59.40
2023-02-07T12:24:14.322Z,56.10
2023-02-07T12:26:27.786Z,55.20
2023-02-07T12:28:42.661Z,55.60
2023-02-07T12:30:53.422Z,58.40
2023-02-07T12:33:10.172Z,54.30
2023-02-07T12:35:25.690Z,55.60
2023-02-07T12:37:43.163Z,57.20
2023-02-07T12:39:57.472Z,54.80
2023-02-07T12:42:21.898Z,54.20
2023-02-07T12:44:32.672Z,56.10
2023-02-07T12:46:49.732Z,56.10
2023-02-07T12:49:12.596Z,56.30
2023-02-07T12:51:33.943Z,49.70
2023-02-07T12:54:03.524Z,50.60
2023-02-07T12:56:25.419Z,54.00
2023-02-07T12:58:50.271Z,48.60
2023-02-07T13:01:03.297Z,49.60
2023-02-07T13:03:27.635Z,50.00
2023-02-07T13:06:03.525Z,49.10
2023-02-07T13:08:20.841Z,43.90
2023-02-07T13:10:39.876Z,45.30
2023-02-07T13:12:52.309Z,48.80
2023-02-07T13:15:16.749Z,49.60
2023-02-07T13:17:43.832Z,44.50
2023-02-07T13:19:56.094Z,44.90
2023-02-07T13:22:06.494Z,46.70
2023-02-07T13:24:17.313Z,43.90
2023-02-07T13:26:27.567Z,45.50
2023-02-07T13:28:43.489Z,45.10
2023-02-07T13:30:50.846Z,43.60
2023-02-07T13:32:56.489Z,43.50
2023-02-07T13:35:05.804Z,42.20
2023-02-07T13:37:17.323Z,41.60
2023-02-07T13:39:35.882Z,42.50
2023-02-07T13:41:57.965Z,38.70
2023-02-07T13:44:16.028Z,40.10
2023-02-07T13:46:46.723Z,38.80
2023-02-07T13:48:59.377Z,36.80
2023-02-07T13:51:16.041Z,37.00
2023-02-07T13:53:42.555Z,40.70
2023-02-07T13:55:48.262Z,37.10
2023-02-07T13:58:09.856Z,37.50
2023-02-07T14:00:24.166Z,38.10
2023-02-07T14:02:32.244Z,38.40
2023-02-07T14:04:52.431Z,38.00
2023-02-07T14:07:11.999Z,37.60
2023-02-07T14:09:26.471Z,40.10
2023-02-07T14:11:41.693Z,38.30
2023-02-07T14:13:49.602Z,36.40
2023-02-07T14:16:09.572Z,36.40
2023-02-07T14:18:48.698Z,39.40
2023-02-07T14:21:04.180Z,37.00
2023-02-07T14:23:19.442Z,39.80
2023-02-07T14:25:26.707Z,36.90
2023-02-07T14:27:35.314Z,35.40
2023-02-07T14:30:22.438Z,35.20
2023-02-07T14:32:42.847Z,33.50
2023-02-07T14:35:08.432Z,33.40
2023-02-07T14:37:25.605Z,35.60
2023-02-07T14:39:34.839Z,35.90
2023-02-07T14:41:44.431Z,36.30
2023-02-07T14:44:08.031Z,36.60
2023-02-07T14:46:20.841Z,34.10
2023-02-07T14:48:40.832Z,36.40
2023-02-07T14:50:55.760Z,36.10
2023-02-07T14:53:04.452Z,36.20
2023-02-07T14:55:19.082Z,36.60
2023-02-07T14:57:40.957Z,36.50
2023-02-07T15:00:00.392Z,37.60
2023-02-07T15:02:38.534Z,38.20
2023-02-07T15:04:46.454Z,34.90
2023-02-07T15:06:51.688Z,37.00
2023-02-07T15:09:02.869Z,35.10
2023-02-07T15:11:17.013Z,35.60
2023-02-07T15:13:30.991Z,39.20
2023-02-07T15:15:51.331Z,37.40
2023-02-07T15:18:02.365Z,35.70
2023-02-07T15:20:09.381Z,36.30
2023-02-07T15:22:29.099Z,35.30
2023-02-07T15:24:50.706Z,37.00
2023-02-07T15:27:00.861Z,36.90
2023-02-07T15:29:09.713Z,36.20
2023-02-07T15:31:18.329Z,35.30
2023-02-07T15:33:28.334Z,36.80
2023-02-07T15:35:42.451Z,36.50
2023-02-07T15:37:48.777Z,36.10
2023-02-07T15:39:55.924Z,37.00
2023-02-07T15:42:01.509Z,36.20
2023-02-07T15:44:09.513Z,37.80
2023-02-07T15:46:15.805Z,38.80
2023-02-07T15:48:20.906Z,37.90
2023-02-07T15:50:32.776Z,39.10
2023-02-07T15:52:42.911Z,41.10
2023-02-07T15:54:53.086Z,41.10
2023-02-07T15:57:02.885Z,39.40
2023-02-07T15:59:14.147Z,40.60
2023-02-07T16:01:34.965Z,41.40
2023-02-07T16:03:44.151Z,42.40
2023-02-07T16:05:52.366Z,45.70
2023-02-07T16:07:58.582Z,48.30
2023-02-07T16:10:20.491Z,52.90
2023-02-07T16:12:45.635Z,55.10
2023-02-07T16:14:51.112Z,54.70
2023-02-07T16:16:58.139Z,56.60
2023-02-07T16:19:18.389Z,58.60
2023-02-07T16:21:29.154Z,59.40
2023-02-07T16:23:34.764Z,60.40
2023-02-07T16:25:40.444Z,61.10
2023-02-07T16:27:49.168Z,62.40
2023-02-07T16:29:54.564Z,64.20
2023-02-07T16:31:59.750Z,65.40
2023-02-07T16:34:04.682Z,65.80
2023-02-07T16:36:15.638Z,67.00
2023-02-07T16:38:23.453Z,68.40
2023-02-07T16:40:29.243Z,69.10
2023-02-07T16:42:36.043Z,68.80
2023-02-07T16:44:40.953Z,69.50
2023-02-07T16:46:45.904Z,71.00
2023-02-07T16:48:51.375Z,71.00
2023-02-07T16:50:57.929Z,70.40
2023-02-07T16:53:02.921Z,71.40
2023-02-07T16:55:13.236Z,72.10
2023-02-07T16:57:18.427Z,72.60
2023-02-07T16:59:25.798Z,74.00
2023-02-07T17:01:30.733Z,73.80
2023-02-07T17:03:36.482Z,74.80
2023-02-07T17:05:41.370Z,75.40
2023-02-07T17:07:47.239Z,76.30
2023-02-07T17:09:52.641Z,76.60
2023-02-07T17:12:00.132Z,77.60
2023-02-07T17:14:05.030Z,78.10
2023-02-07T17:16:14.512Z,78.70
2023-02-07T17:18:20.617Z,79.10
2023-02-07T17:20:28.770Z,80.20
2023-02-07T17:22:33.673Z,79.90
2023-02-07T17:24:38.602Z,81.20
2023-02-07T17:26:46.864Z,79.90
2023-02-07T17:28:55.023Z,80.90
2023-02-07T17:31:00.172Z,80.10
2023-02-07T17:33:05.077Z,81.40
2023-02-07T17:35:11.113Z,80.70
2023-02-07T17:37:16.356Z,81.30
2023-02-07T17:39:23.448Z,81.60
2023-02-07T17:41:28.816Z,81.50
2023-02-07T17:43:33.758Z,81.60
2023-02-07T17:45:41.296Z,81.70
2023-02-07T17:47:46.983Z,81.10
2023-02-07T17:49:51.864Z,82.40
2023-02-07T17:51:56.968Z,82.90
2023-02-07T17:54:01.862Z,82.60
2023-02-07T17:56:08.083Z,82.70
2023-02-07T17:58:21.254Z,84.10
2023-02-07T18:00:29.618Z,83.10
2023-02-07T18:02:38.081Z,84.20
2023-02-07T18:04:43.012Z,84.40
2023-02-07T18:06:47.969Z,83.80
2023-02-07T18:08:54.498Z,84.00
2023-02-07T18:11:04.235Z,83.90
2023-02-07T18:13:09.163Z,84.70
2023-02-07T18:15:15.329Z,85.10
2023-02-07T18:17:22.824Z,84.30
2023-02-07T18:19:33.065Z,85.30
2023-02-07T18:21:38.708Z,85.10
2023-02-07T18:23:44.027Z,85.70
2023-02-07T18:25:51.161Z,85.40
2023-02-07T18:27:57.101Z,84.80
2023-02-07T18:30:02.081Z,85.00
2023-02-07T18:32:07.234Z,85.20
2023-02-07T18:34:14.049Z,85.60
2023-02-07T18:36:26.840Z,86.40
2023-02-07T18:38:33.723Z,86.00
2023-02-07T18:40:38.873Z,86.60
2023-02-07T18:42:44.158Z,86.40
2023-02-07T18:44:49.214Z,85.70
2023-02-07T18:46:54.100Z,86.20
2023-02-07T18:49:00.825Z,86.60
2023-02-07T18:51:09.699Z,87.10
2023-02-07T18:53:17.259Z,87.10
2023-02-07T18:55:22.224Z,88.10
2023-02-07T18:57:27.111Z,88.30
2023-02-07T18:59:32.006Z,89.40
2023-02-07T19:01:37.713Z,89.20
2023-02-07T19:03:44.594Z,89.30
2023-02-07T19:05:49.482Z,89.00
2023-02-07T19:07:56.362Z,88.90
2023-02-07T19:10:04.363Z,89.60
2023-02-07T19:12:10.946Z,89.90
2023-02-07T19:14:18.174Z,89.90
2023-02-07T19:16:26.450Z,89.80
2023-02-07T19:18:31.390Z,89.80
2023-02-07T19:20:36.383Z,89.80
2023-02-07T19:22:41.592Z,89.90
2023-02-07T19:24:46.502Z,89.90
2023-02-07T19:26:57.165Z,89.40
2023-02-07T19:29:05.250Z,89.10
2023-02-07T19:31:17.770Z,89.60
2023-02-07T19:33:23.124Z,88.80
2023-02-07T19:35:28.013Z,89.90
2023-02-07T19:37:32.881Z,89.60
2023-02-07T19:39:37.788Z,90.10
2023-02-07T19:41:42.703Z,89.90
2023-02-07T19:43:50.988Z,90.50
2023-02-07T19:45:56.455Z,90.50
2023-02-07T19:48:01.409Z,90.40
2023-02-07T19:50:07.546Z,90.80
2023-02-07T19:52:12.508Z,90.60
2023-02-07T19:54:17.821Z,90.90
2023-02-07T19:56:26.897Z,90.30
2023-02-07T19:58:32.714Z,90.10
2023-02-07T20:00:40.511Z,90.70
2023-02-07T20:02:45.579Z,91.00
2023-02-07T20:04:54.556Z,91.10
2023-02-07T20:07:00.147Z,91.10
2023-02-07T20:09:09.196Z,91.30
2023-02-07T20:11:17.667Z,91.10
2023-02-07T20:13:22.627Z,91.40
2023-02-07T20:15:27.559Z,91.70
2023-02-07T20:17:35.059Z,91.70
2023-02-07T20:19:40.578Z,91.80
2023-02-07T20:21:46.206Z,91.80
2023-02-07T20:23:52.284Z,91.80
2023-02-07T20:25:57.590Z,92.00
2023-02-07T20:28:02.706Z,91.60
2023-02-07T20:30:09.051Z,91.60
2023-02-07T20:32:15.542Z,92.00
2023-02-07T20:34:23.256Z,91.80
2023-02-07T20:36:29.477Z,91.70
2023-02-07T20:38:34.681Z,91.90
2023-02-07T20:40:40.889Z,92.00
2023-02-07T20:42:46.401Z,91.80
2023-02-07T20:44:51.341Z,91.80
2023-02-07T20:46:59.358Z,91.60
2023-02-07T20:49:07.345Z,91.70
2023-02-07T20:51:16.196Z,90.90
2023-02-07T20:53:21.075Z,90.40
2023-02-07T20:55:27.004Z,90.80
2023-02-07T20:57:32.138Z,91.30
2023-02-07T20:59:37.562Z,91.30
2023-02-07T21:01:42.574Z,91.20
2023-02-07T21:03:48.965Z,91.10
2023-02-07T21:05:53.858Z,90.90
2023-02-07T21:08:02.074Z,90.30
2023-02-07T21:10:09.607Z,90.40
2023-02-07T21:12:14.529Z,90.50
2023-02-07T21:14:24.872Z,90.30
2023-02-07T21:16:30.812Z,90.40
2023-02-07T21:18:37.670Z,91.30
2023-02-07T21:20:43.452Z,91.00
2023-02-07T21:22:48.353Z,91.10
2023-02-07T21:24:55.823Z,90.80
2023-02-07T21:27:03.101Z,90.80
2023-02-07T21:29:09.042Z,90.80
2023-02-07T21:31:17.410Z,90.30
2023-02-07T21:33:22.376Z,90.10
2023-02-07T21:35:27.265Z,90.70
2023-02-07T21:37:32.435Z,90.40
2023-02-07T21:39:37.398Z,90.60
2023-02-07T21:41:48.027Z,91.10
2023-02-07T21:43:53.289Z,90.80
2023-02-07T21:46:07.052Z,90.60
2023-02-07T21:48:11.976Z,91.10
2023-02-07T21:50:16.894Z,91.60
2023-02-07T21:52:22.277Z,91.80
2023-02-07T21:54:27.167Z,92.00
2023-02-07T21:56:35.121Z,91.90
2023-02-07T21:58:42.948Z,92.10
2023-02-07T22:00:47.833Z,91.90
2023-02-07T22:02:52.758Z,92.00
2023-02-07T22:04:57.678Z,92.10
2023-02-07T22:07:02.571Z,92.30
2023-02-07T22:09:08.055Z,92.50
2023-02-07T22:11:14.592Z,92.60
2023-02-07T22:13:19.532Z,92.20
2023-02-07T22:15:27.030Z,92.60
2023-02-07T22:17:31.986Z,92.10
2023-02-07T22:19:36.882Z,92.00
2023-02-07T22:21:42.177Z,91.90
2023-02-07T22:23:47.124Z,92.40
2023-02-07T22:25:54.944Z,91.50
2023-02-07T22:28:00.672Z,91.70
2023-02-07T22:30:05.675Z,91.90
2023-02-07T22:32:13.176Z,91.70
2023-02-07T22:34:19.046Z,91.80
2023-02-07T22:36:29.078Z,91.20
2023-02-07T22:38:34.027Z,91.20
2023-02-07T22:40:41.597Z,91.50
2023-02-07T22:42:46.704Z,91.60
2023-02-07T22:44:51.920Z,91.90
2023-02-07T22:46:57.240Z,91.80
2023-02-07T22:49:04.746Z,92.40
2023-02-07T22:51:20.406Z,92.80
2023-02-07T22:53:25.633Z,93.20
2023-02-07T22:55:30.535Z,93.40
2023-02-07T22:57:35.435Z,93.30
2023-02-07T22:59:41.059Z,92.90
2023-02-07T23:01:47.344Z,92.70
2023-02-07T23:03:53.994Z,93.00
2023-02-07T23:06:05.238Z,93.10
2023-02-07T23:08:10.246Z,93.30
2023-02-07T23:10:15.434Z,93.40
2023-02-07T23:12:20.331Z,93.40
2023-02-07T23:14:25.275Z,93.20
2023-02-07T23:16:32.266Z,92.90
2023-02-07T23:18:37.567Z,93.30
2023-02-07T23:20:47.468Z,93.20
2023-02-07T23:22:54.924Z,93.20
2023-02-07T23:24:59.927Z,93.30
2023-02-07T23:27:04.867Z,93.40
2023-02-07T23:29:10.028Z,93.60
2023-02-07T23:31:19.749Z,93.90
2023-02-07T23:33:24.740Z,93.70
2023-02-07T23:35:30.217Z,93.50
2023-02-07T23:37:35.704Z,93.50
2023-02-07T23:39:43.213Z,93.50
2023-02-07T23:41:48.205Z,93.40
2023-02-07T23:43:53.170Z,93.00
2023-02-07T23:45:58.519Z,92.70
2023-02-07T23:48:08.726Z,92.20
2023-02-07T23:50:14.624Z,92.20
2023-02-07T23:52:20.207Z,92.80
2023-02-07T23:54:25.247Z,92.30
2023-02-07T23:56:32.962Z,92.60
2023-02-07T23:58:39.612Z,92.60
